Quick Links (Output Below):   Max & Min Temps   /   Climate Reports   /   Zone Forecasts
River Forecasts   /   Forestry Forecasts   /   Aviation Forecasts   /   Radars   /   Features

Terminal Aerodrome Forecast (Pine Bluff)

Pick a Site:
Arkadelphia | El Dorado | Fayetteville | Fort Smith | Harrison | Highfill | Hot Springs | Jonesboro
Little Rock | Monticello | Mountain Home | Pine Bluff | Texarkana
 Forecast 

KPBF 241135Z 2412/2512 27014G22KT P6SM SKC
     FM250000 30005KT P6SM SKC=


 Latest METARs (Observations) 
How to Decode METARs
11Z KPBF 241053Z AUTO 28010KT 10SM CLR 09/04 A2976 RMK AO2 SLP075
         T00940044
         
10Z KPBF 240953Z AUTO 29012G24KT 10SM OVC034 11/04 A2971 RMK AO2 PK
         WND 28034/0912 SLP059 T01110044
         
09Z KPBF 240853Z AUTO 28021G29KT 10SM OVC025 12/07 A2964 RMK AO2 PK
         WND 29029/0844 RAE53 PRESRR SLP037 P0000 60000 T01220067
         53047
         
08Z KPBF 240753Z AUTO 24014G22KT 10SM -RA OVC037 14/08 A2958 RMK AO2
         SLP014 P0000 T01390083
         
07Z KPBF 240653Z AUTO 24009G18KT 10SM -RA CLR 14/08 A2953 RMK AO2
         SLP000 P0000 T01390083
         
06Z KPBF 240553Z AUTO 24012G21KT 10SM -RA CLR 16/09 A2950 RMK AO2 PK
         WND 23027/0518 RAB02 SLP990 P0000 60000 T01560094 10167 20156
         401720133 53022
         
05Z KPBF 240453Z AUTO 22018G25KT 10SM CLR 17/12 A2946 RMK AO2 PK WND
         21026/0423 SLP976 T01670117
         
04Z KPBF 240353Z AUTO 20016G24KT 10SM CLR 17/13 A2944 RMK AO2 SLP966
         T01670133
         
03Z KPBF 240253Z AUTO 20012KT 10SM CLR 16/14 A2944 RMK AO2 SLP968
         T01610139 50008
         
02Z KPBF 240153Z AUTO 20012G19KT 10SM CLR 17/14 A2944 RMK AO2 SLP968
         T01670144
         
***** Today's Observations (Above) *****


Back to Main Page
http://www.srh.noaa.gov/lzk/qfcst.php

USA.gov is the U.S. government's official web portal to all federal, state and local government web resources and services.